createdAt,value
2023-03-18T00:00:37.605Z,996.54
2023-03-18T00:01:37.637Z,996.60
2023-03-18T00:02:37.617Z,996.57
2023-03-18T00:03:37.681Z,996.62
2023-03-18T00:04:37.623Z,996.60
2023-03-18T00:05:37.541Z,996.66
2023-03-18T00:06:37.551Z,996.65
2023-03-18T00:07:37.526Z,996.66
2023-03-18T00:08:37.503Z,996.61
2023-03-18T00:09:37.492Z,996.55
2023-03-18T00:10:37.478Z,996.57
2023-03-18T00:11:37.483Z,996.63
2023-03-18T00:12:37.450Z,996.61
2023-03-18T00:13:37.441Z,996.66
2023-03-18T00:14:37.421Z,996.67
2023-03-18T00:15:37.455Z,996.69
2023-03-18T00:16:37.421Z,996.77
2023-03-18T00:17:37.385Z,996.83
2023-03-18T00:18:37.371Z,996.83
2023-03-18T00:19:37.354Z,996.82
2023-03-18T00:20:37.342Z,996.81
2023-03-18T00:21:37.365Z,996.77
2023-03-18T00:22:37.323Z,996.79
2023-03-18T00:23:37.299Z,996.79
2023-03-18T00:24:37.291Z,996.78
2023-03-18T00:25:37.270Z,996.74
2023-03-18T00:26:37.283Z,996.68
2023-03-18T00:27:37.243Z,996.69
2023-03-18T00:28:37.294Z,996.72
2023-03-18T00:29:37.230Z,996.72
2023-03-18T00:30:37.212Z,996.70
2023-03-18T00:31:37.244Z,996.70
2023-03-18T00:32:37.316Z,996.66
2023-03-18T00:33:37.172Z,996.64
2023-03-18T00:34:37.168Z,996.58
2023-03-18T00:35:37.181Z,996.54
2023-03-18T00:36:37.159Z,996.56
2023-03-18T00:37:37.121Z,996.63
2023-03-18T00:38:37.103Z,996.62
2023-03-18T00:39:37.092Z,996.64
2023-03-18T00:40:37.084Z,996.58
2023-03-18T00:41:37.079Z,996.57
2023-03-18T00:42:37.061Z,996.55
2023-03-18T00:43:37.032Z,996.58
2023-03-18T00:44:37.034Z,996.62
2023-03-18T00:45:37.002Z,996.66
2023-03-18T00:46:37.089Z,996.63
2023-03-18T00:47:36.990Z,996.65
2023-03-18T00:48:36.985Z,996.60
2023-03-18T00:49:36.970Z,996.57
2023-03-18T00:50:36.976Z,996.56
2023-03-18T00:51:36.946Z,996.56
2023-03-18T00:52:36.940Z,996.60
2023-03-18T00:53:36.903Z,996.58
2023-03-18T00:54:36.908Z,996.61
2023-03-18T00:55:36.885Z,996.62
2023-03-18T00:56:36.905Z,996.63
2023-03-18T00:57:36.859Z,996.62
2023-03-18T00:58:36.844Z,996.61
2023-03-18T00:59:36.835Z,996.66
2023-03-18T01:00:36.887Z,996.67
2023-03-18T01:01:36.893Z,996.64
2023-03-18T01:02:36.843Z,996.61
2023-03-18T01:03:36.774Z,996.59
2023-03-18T01:04:36.839Z,996.57
2023-03-18T01:05:36.745Z,996.55
2023-03-18T01:06:36.753Z,996.54
2023-03-18T01:07:36.755Z,996.58
2023-03-18T01:08:36.719Z,996.54
2023-03-18T01:09:36.695Z,996.54
2023-03-18T01:10:36.683Z,996.55
2023-03-18T01:11:36.683Z,996.53
2023-03-18T01:12:37.613Z,996.52
2023-03-18T01:13:36.642Z,996.51
2023-03-18T01:14:36.647Z,996.49
2023-03-18T01:15:36.628Z,996.48
2023-03-18T01:16:36.660Z,996.50
2023-03-18T01:17:36.609Z,996.47
2023-03-18T01:18:36.588Z,996.50
2023-03-18T01:19:36.564Z,996.51
2023-03-18T01:20:36.556Z,996.48
2023-03-18T01:21:36.566Z,996.45
2023-03-18T01:22:36.536Z,996.46
2023-03-18T01:23:36.541Z,996.44
2023-03-18T01:24:36.561Z,996.43
2023-03-18T01:25:36.507Z,996.44
2023-03-18T01:26:36.484Z,996.44
2023-03-18T01:27:36.505Z,996.42
2023-03-18T01:28:36.459Z,996.40
2023-03-18T01:29:36.435Z,996.45
2023-03-18T01:30:36.427Z,996.44
2023-03-18T01:31:36.444Z,996.45
2023-03-18T01:32:36.581Z,996.44
2023-03-18T01:33:36.385Z,996.44
2023-03-18T01:34:36.387Z,996.45
2023-03-18T01:35:36.427Z,996.45
2023-03-18T01:36:36.344Z,996.46
2023-03-18T01:37:36.346Z,996.46
2023-03-18T01:38:36.383Z,996.49
2023-03-18T01:39:36.303Z,996.54
2023-03-18T01:40:36.301Z,996.54
2023-03-18T01:41:36.281Z,996.50
2023-03-18T01:42:36.293Z,996.47
2023-03-18T01:43:36.271Z,996.46
2023-03-18T01:44:36.245Z,996.45
2023-03-18T01:45:36.259Z,996.42
2023-03-18T01:46:36.226Z,996.43
2023-03-18T01:47:36.211Z,996.37
2023-03-18T01:48:36.197Z,996.37
2023-03-18T01:49:36.170Z,996.34
2023-03-18T01:50:36.161Z,996.32
2023-03-18T01:51:36.172Z,996.30
2023-03-18T01:52:36.153Z,996.28
2023-03-18T01:53:36.141Z,996.31
2023-03-18T01:54:36.113Z,996.35
2023-03-18T01:55:36.092Z,996.31
2023-03-18T01:56:36.080Z,996.31
2023-03-18T01:57:36.091Z,996.29
2023-03-18T01:58:36.060Z,996.26
2023-03-18T01:59:36.040Z,996.25
2023-03-18T02:00:36.043Z,996.25
2023-03-18T02:01:36.021Z,996.27
2023-03-18T02:02:36.029Z,996.27
2023-03-18T02:03:36.032Z,996.35
2023-03-18T02:04:36.000Z,996.35
2023-03-18T02:05:35.968Z,996.31
2023-03-18T02:06:35.950Z,996.30
2023-03-18T02:07:35.969Z,996.26
2023-03-18T02:08:35.922Z,996.24
2023-03-18T02:09:35.911Z,996.17
2023-03-18T02:10:35.927Z,996.20
2023-03-18T02:11:35.890Z,996.17
2023-03-18T02:12:35.896Z,996.19
2023-03-18T02:13:35.861Z,996.15
2023-03-18T02:14:35.863Z,996.15
2023-03-18T02:15:35.845Z,996.15
2023-03-18T02:16:35.887Z,996.14
2023-03-18T02:17:35.817Z,996.17
2023-03-18T02:18:35.794Z,996.14
2023-03-18T02:19:35.803Z,996.10
2023-03-18T02:20:35.795Z,996.03
2023-03-18T02:21:35.802Z,996.00
2023-03-18T02:22:35.745Z,996.07
2023-03-18T02:23:35.726Z,996.08
2023-03-18T02:24:35.787Z,996.10
2023-03-18T02:25:35.728Z,996.11
2023-03-18T02:26:35.694Z,996.08
2023-03-18T02:27:35.686Z,996.10
2023-03-18T02:28:35.670Z,996.10
2023-03-18T02:29:35.677Z,996.12
2023-03-18T02:30:35.963Z,996.06
2023-03-18T02:31:35.621Z,996.04
2023-03-18T02:32:35.644Z,996.03
2023-03-18T02:33:35.597Z,996.03
2023-03-18T02:34:35.618Z,996.07
2023-03-18T02:35:35.604Z,996.03
2023-03-18T02:36:35.574Z,996.04
2023-03-18T02:37:35.543Z,996.04
2023-03-18T02:38:35.564Z,996.08
2023-03-18T02:39:35.533Z,996.12
2023-03-18T02:40:35.529Z,996.07
2023-03-18T02:41:35.505Z,996.08
2023-03-18T02:42:35.497Z,996.11
2023-03-18T02:43:35.486Z,996.13
2023-03-18T02:44:35.467Z,996.13
2023-03-18T02:45:35.472Z,996.11
2023-03-18T02:46:35.442Z,996.11
2023-03-18T02:47:35.429Z,996.17
2023-03-18T02:48:35.402Z,996.21
2023-03-18T02:49:35.502Z,996.17
2023-03-18T02:50:35.391Z,996.10
2023-03-18T02:51:35.390Z,996.15
2023-03-18T02:52:35.356Z,996.14
2023-03-18T02:53:35.348Z,996.16
2023-03-18T02:54:35.328Z,996.20
2023-03-18T02:55:37.163Z,996.20
2023-03-18T02:56:35.295Z,996.19
2023-03-18T02:57:35.295Z,996.21
2023-03-18T02:58:35.278Z,996.20
2023-03-18T02:59:35.257Z,996.14
2023-03-18T03:00:35.276Z,996.12
2023-03-18T03:01:35.377Z,996.10
2023-03-18T03:02:35.402Z,996.14
2023-03-18T03:03:35.289Z,996.15
2023-03-18T03:04:35.204Z,996.10
2023-03-18T03:05:35.206Z,996.14
2023-03-18T03:06:35.223Z,996.14
2023-03-18T03:07:35.160Z,996.10
2023-03-18T03:08:35.150Z,996.10
2023-03-18T03:09:35.130Z,996.17
2023-03-18T03:10:35.203Z,996.18
2023-03-18T03:11:35.140Z,996.16
2023-03-18T03:12:35.095Z,996.19
2023-03-18T03:13:35.094Z,996.18
2023-03-18T03:14:35.058Z,996.16
2023-03-18T03:15:35.114Z,996.18
2023-03-18T03:16:42.131Z,996.17
2023-03-18T03:17:35.036Z,996.18
2023-03-18T03:18:35.005Z,996.19
2023-03-18T03:19:35.021Z,996.18
2023-03-18T03:20:34.986Z,996.21
2023-03-18T03:21:34.998Z,996.24
2023-03-18T03:22:34.963Z,996.22
2023-03-18T03:23:34.952Z,996.21
2023-03-18T03:24:34.925Z,996.25
2023-03-18T03:25:34.922Z,996.26
2023-03-18T03:26:34.915Z,996.26
2023-03-18T03:27:35.294Z,996.22
2023-03-18T03:28:34.879Z,996.22
2023-03-18T03:29:34.878Z,996.19
2023-03-18T03:30:34.854Z,996.20
2023-03-18T03:31:34.874Z,996.22
2023-03-18T03:32:34.862Z,996.21
2023-03-18T03:33:34.821Z,996.22
2023-03-18T03:34:34.803Z,996.27
2023-03-18T03:35:34.816Z,996.28
2023-03-18T03:36:34.797Z,996.37
2023-03-18T03:37:34.764Z,996.36
2023-03-18T03:38:34.744Z,996.40
2023-03-18T03:39:34.738Z,996.40
2023-03-18T03:40:34.728Z,996.41
2023-03-18T03:41:55.705Z,996.42
2023-03-18T03:42:34.711Z,996.44
2023-03-18T03:43:34.684Z,996.48
2023-03-18T03:44:34.675Z,996.46
2023-03-18T03:45:34.676Z,996.46
2023-03-18T03:46:34.707Z,996.46
2023-03-18T03:47:34.633Z,996.50
2023-03-18T03:48:34.615Z,996.48
2023-03-18T03:49:34.618Z,996.48
2023-03-18T03:50:34.585Z,996.52
2023-03-18T03:51:34.594Z,996.48
2023-03-18T03:52:34.571Z,996.49
2023-03-18T03:53:34.554Z,996.50
2023-03-18T03:54:34.545Z,996.49
2023-03-18T03:55:34.534Z,996.53
2023-03-18T03:56:34.527Z,996.52
2023-03-18T03:57:34.505Z,996.50
2023-03-18T03:58:34.483Z,996.53
2023-03-18T03:59:34.475Z,996.50
2023-03-18T04:00:34.478Z,996.53
2023-03-18T04:01:34.477Z,996.56
2023-03-18T04:02:34.496Z,996.55
2023-03-18T04:03:34.444Z,996.52
2023-03-18T04:04:34.448Z,996.49
2023-03-18T04:05:34.397Z,996.48
2023-03-18T04:06:34.514Z,996.49
2023-03-18T04:07:34.380Z,996.50
2023-03-18T04:08:34.361Z,996.51
2023-03-18T04:09:34.343Z,996.60
2023-03-18T04:10:34.519Z,996.56
2023-03-18T04:11:34.336Z,996.57
2023-03-18T04:12:34.302Z,996.61
2023-03-18T04:13:34.309Z,996.61
2023-03-18T04:14:34.402Z,996.51
2023-03-18T04:15:34.262Z,996.53
2023-03-18T04:16:34.338Z,996.56
2023-03-18T04:17:34.239Z,996.61
2023-03-18T04:18:34.222Z,996.54
2023-03-18T04:19:34.220Z,996.59
2023-03-18T04:20:34.342Z,996.62
2023-03-18T04:21:34.981Z,996.65
2023-03-18T04:22:34.184Z,996.65
2023-03-18T04:23:34.163Z,996.67
2023-03-18T04:24:34.151Z,996.67
2023-03-18T04:25:34.133Z,996.69
2023-03-18T04:26:34.120Z,996.69
2023-03-18T04:27:34.123Z,996.68
2023-03-18T04:28:34.094Z,996.68
2023-03-18T04:29:34.084Z,996.66
2023-03-18T04:30:34.310Z,996.69
2023-03-18T04:31:34.109Z,996.76
2023-03-18T04:32:34.108Z,996.65
2023-03-18T04:33:34.030Z,996.73
2023-03-18T04:34:34.020Z,996.76
2023-03-18T04:35:34.050Z,996.74
2023-03-18T04:36:34.005Z,996.74
2023-03-18T04:37:36.081Z,996.74
2023-03-18T04:38:33.951Z,996.74
2023-03-18T04:39:33.948Z,996.76
2023-03-18T04:40:34.202Z,996.79
2023-03-18T04:41:33.928Z,996.76
2023-03-18T04:42:33.920Z,996.77
2023-03-18T04:43:33.899Z,996.75
2023-03-18T04:44:33.878Z,996.77
2023-03-18T04:45:33.872Z,996.75
2023-03-18T04:46:33.888Z,996.76
2023-03-18T04:47:33.870Z,996.81
2023-03-18T04:48:33.827Z,996.85
2023-03-18T04:49:33.812Z,996.87
2023-03-18T04:50:34.081Z,996.85
2023-03-18T04:51:33.790Z,996.89
2023-03-18T04:52:33.798Z,996.93
2023-03-18T04:53:33.760Z,996.91
2023-03-18T04:54:33.759Z,996.90
2023-03-18T04:55:34.060Z,996.90
2023-03-18T04:56:33.718Z,996.87
2023-03-18T04:57:33.731Z,996.86
2023-03-18T04:58:33.690Z,996.87
2023-03-18T04:59:33.683Z,996.88
2023-03-18T05:00:33.676Z,996.88
2023-03-18T05:01:33.659Z,996.85
2023-03-18T05:02:33.662Z,996.86
2023-03-18T05:03:33.677Z,996.88
2023-03-18T05:04:33.620Z,996.89
2023-03-18T05:05:34.726Z,996.89
2023-03-18T05:06:33.659Z,996.83
2023-03-18T05:07:33.593Z,996.89
2023-03-18T05:08:33.583Z,996.91
2023-03-18T05:09:33.551Z,996.89
2023-03-18T05:10:33.543Z,996.84
2023-03-18T05:11:33.522Z,996.86
2023-03-18T05:12:33.538Z,996.91
2023-03-18T05:13:33.505Z,996.93
2023-03-18T05:14:33.480Z,996.95
2023-03-18T05:15:33.665Z,996.97
2023-03-18T05:16:33.524Z,996.95
2023-03-18T05:17:33.461Z,996.97
2023-03-18T05:18:33.428Z,996.94
2023-03-18T05:19:33.421Z,996.99
2023-03-18T05:20:33.401Z,996.96
2023-03-18T05:21:33.395Z,996.95
2023-03-18T05:22:33.389Z,996.91
2023-03-18T05:23:33.362Z,996.95
2023-03-18T05:24:33.352Z,996.92
2023-03-18T05:25:33.733Z,996.96
2023-03-18T05:26:33.324Z,996.94
2023-03-18T05:27:33.376Z,996.96
2023-03-18T05:28:33.292Z,996.98
2023-03-18T05:29:33.289Z,996.97
2023-03-18T05:30:33.276Z,997.00
2023-03-18T05:31:33.355Z,996.98
2023-03-18T05:32:33.302Z,997.00
2023-03-18T05:33:33.232Z,996.99
2023-03-18T05:34:33.220Z,997.00
2023-03-18T05:35:33.722Z,997.01
2023-03-18T05:36:33.193Z,997.02
2023-03-18T05:37:33.211Z,997.03
2023-03-18T05:38:33.162Z,997.01
2023-03-18T05:39:33.151Z,997.02
2023-03-18T05:40:33.960Z,997.06
2023-03-18T05:41:33.129Z,997.03
2023-03-18T05:42:35.168Z,997.02
2023-03-18T05:43:33.100Z,997.02
2023-03-18T05:44:33.080Z,997.05
2023-03-18T05:45:33.409Z,997.04
2023-03-18T05:46:33.108Z,997.04
2023-03-18T05:47:33.065Z,996.99
2023-03-18T05:48:33.032Z,997.00
2023-03-18T05:49:33.021Z,996.98
2023-03-18T05:50:33.007Z,996.99
2023-03-18T05:51:32.998Z,996.96
2023-03-18T05:52:32.991Z,997.00
2023-03-18T05:53:32.968Z,997.03
2023-03-18T05:54:32.948Z,997.06
2023-03-18T05:55:33.309Z,997.06
2023-03-18T05:56:32.928Z,997.04
2023-03-18T05:57:32.963Z,997.05
2023-03-18T05:58:32.892Z,997.04
2023-03-18T05:59:32.891Z,997.07
2023-03-18T06:00:32.872Z,997.07
2023-03-18T06:01:32.862Z,997.08
2023-03-18T06:02:32.944Z,997.12
2023-03-18T06:03:32.880Z,997.14
2023-03-18T06:04:32.819Z,997.13
2023-03-18T06:05:33.070Z,997.13
2023-03-18T06:06:32.792Z,997.15
2023-03-18T06:07:32.807Z,997.20
2023-03-18T06:08:32.766Z,997.19
2023-03-18T06:09:32.759Z,997.17
2023-03-18T06:10:32.733Z,997.17
2023-03-18T06:11:32.734Z,997.17
2023-03-18T06:12:32.718Z,997.23
2023-03-18T06:13:32.712Z,997.22
2023-03-18T06:14:32.690Z,997.26
2023-03-18T06:15:33.104Z,997.29
2023-03-18T06:16:32.738Z,997.30
2023-03-18T06:17:32.643Z,997.28
2023-03-18T06:18:32.642Z,997.28
2023-03-18T06:19:32.623Z,997.30
2023-03-18T06:20:32.620Z,997.31
2023-03-18T06:21:32.593Z,997.32
2023-03-18T06:22:32.572Z,997.34
2023-03-18T06:23:32.658Z,997.34
2023-03-18T06:24:32.558Z,997.34
2023-03-18T06:25:32.751Z,997.35
2023-03-18T06:26:32.528Z,997.34
2023-03-18T06:27:32.514Z,997.35
2023-03-18T06:28:32.513Z,997.35
2023-03-18T06:29:32.494Z,997.37
2023-03-18T06:30:32.473Z,997.36
2023-03-18T06:31:32.533Z,997.32
2023-03-18T06:32:32.473Z,997.35
2023-03-18T06:33:32.453Z,997.38
2023-03-18T06:34:32.426Z,997.36
2023-03-18T06:35:32.729Z,997.40
2023-03-18T06:36:32.400Z,997.45
2023-03-18T06:37:32.396Z,997.41
2023-03-18T06:38:32.404Z,997.45
2023-03-18T06:39:32.356Z,997.46
2023-03-18T06:40:32.342Z,997.42
2023-03-18T06:41:32.337Z,997.47
2023-03-18T06:42:32.337Z,997.47
2023-03-18T06:43:32.323Z,997.48
2023-03-18T06:44:32.307Z,997.46
2023-03-18T06:45:32.530Z,997.45
2023-03-18T06:46:32.375Z,997.49
2023-03-18T06:47:32.254Z,997.50
2023-03-18T06:48:32.251Z,997.52
2023-03-18T06:49:32.229Z,997.55
2023-03-18T06:50:32.202Z,997.55
2023-03-18T06:51:32.198Z,997.56
2023-03-18T06:52:32.257Z,997.55
2023-03-18T06:53:32.196Z,997.52
2023-03-18T06:54:32.158Z,997.56
2023-03-18T06:55:32.323Z,997.57
2023-03-18T06:56:32.124Z,997.55
2023-03-18T06:57:32.133Z,997.51
2023-03-18T06:58:32.114Z,997.58
2023-03-18T06:59:32.092Z,997.54
2023-03-18T07:00:32.198Z,997.52
2023-03-18T07:01:32.171Z,997.51
2023-03-18T07:02:32.045Z,997.52
2023-03-18T07:03:32.054Z,997.50
2023-03-18T07:04:32.078Z,997.51
2023-03-18T07:05:32.243Z,997.51
2023-03-18T07:06:31.999Z,997.53
2023-03-18T07:07:31.992Z,997.53
2023-03-18T07:08:31.985Z,997.54
2023-03-18T07:09:31.953Z,997.51
2023-03-18T07:10:31.941Z,997.50
2023-03-18T07:11:31.931Z,997.50
2023-03-18T07:12:31.913Z,997.55
2023-03-18T07:13:31.922Z,997.56
2023-03-18T07:14:32.653Z,997.57
2023-03-18T07:15:32.230Z,997.55
2023-03-18T07:16:31.865Z,997.56
2023-03-18T07:17:31.860Z,997.57
2023-03-18T07:18:31.845Z,997.59
2023-03-18T07:19:31.825Z,997.59
2023-03-18T07:20:31.804Z,997.61
2023-03-18T07:21:31.805Z,997.64
2023-03-18T07:22:31.786Z,997.63
2023-03-18T07:23:31.783Z,997.61
2023-03-18T07:24:31.752Z,997.66
2023-03-18T07:25:31.969Z,997.67
2023-03-18T07:26:31.738Z,997.70
2023-03-18T07:27:31.722Z,997.68
2023-03-18T07:28:31.722Z,997.73
2023-03-18T07:29:31.732Z,997.74
2023-03-18T07:30:31.684Z,997.78
2023-03-18T07:31:31.782Z,997.76
2023-03-18T07:32:31.749Z,997.78
2023-03-18T07:33:31.923Z,997.79
2023-03-18T07:34:31.640Z,997.75
2023-03-18T07:35:31.966Z,997.74
2023-03-18T07:36:31.602Z,997.69
2023-03-18T07:37:31.580Z,997.75
2023-03-18T07:38:31.611Z,997.74
2023-03-18T07:39:31.743Z,997.73
2023-03-18T07:40:31.543Z,997.76
2023-03-18T07:41:31.542Z,997.74
2023-03-18T07:42:31.639Z,997.77
2023-03-18T07:43:31.532Z,997.74
2023-03-18T07:44:31.491Z,997.80
2023-03-18T07:45:31.751Z,997.76
2023-03-18T07:46:31.489Z,997.79
2023-03-18T07:47:31.488Z,997.74
2023-03-18T07:48:31.460Z,997.73
2023-03-18T07:49:31.431Z,997.77
2023-03-18T07:50:31.420Z,997.82
2023-03-18T07:51:31.410Z,997.78
2023-03-18T07:52:31.433Z,997.77
2023-03-18T07:53:31.390Z,997.76
2023-03-18T07:54:31.365Z,997.77
2023-03-18T07:55:31.620Z,997.77
2023-03-18T07:56:31.348Z,997.71
2023-03-18T07:57:31.324Z,997.71
2023-03-18T07:58:31.331Z,997.74
2023-03-18T07:59:31.294Z,997.71
2023-03-18T08:00:31.301Z,997.76
2023-03-18T08:01:31.269Z,997.74
2023-03-18T08:02:31.263Z,997.76
2023-03-18T08:03:31.606Z,997.80
2023-03-18T08:04:31.356Z,997.75
2023-03-18T08:05:31.474Z,997.76
2023-03-18T08:06:31.381Z,997.77
2023-03-18T08:07:31.989Z,997.75
2023-03-18T08:08:31.200Z,997.77
2023-03-18T08:09:31.165Z,997.76
2023-03-18T08:10:31.170Z,997.75
2023-03-18T08:11:31.142Z,997.77
2023-03-18T08:12:41.614Z,997.78
2023-03-18T08:13:32.131Z,997.75
2023-03-18T08:14:31.102Z,997.78
2023-03-18T08:15:31.560Z,997.77
2023-03-18T08:16:31.149Z,997.72
2023-03-18T08:17:31.062Z,997.71
2023-03-18T08:18:31.070Z,997.69
2023-03-18T08:19:31.045Z,997.74
2023-03-18T08:20:31.022Z,997.71
2023-03-18T08:21:31.019Z,997.70
2023-03-18T08:22:31.000Z,997.68
2023-03-18T08:23:31.003Z,997.69
2023-03-18T08:24:31.257Z,997.69
2023-03-18T08:25:31.395Z,997.68
2023-03-18T08:26:30.946Z,997.70
2023-03-18T08:27:30.922Z,997.74
2023-03-18T08:28:30.949Z,997.68
2023-03-18T08:29:30.897Z,997.71
2023-03-18T08:30:30.921Z,997.70
2023-03-18T08:31:30.885Z,997.72
2023-03-18T08:32:30.951Z,997.73
2023-03-18T08:33:30.871Z,997.73
2023-03-18T08:34:30.852Z,997.73
2023-03-18T08:35:31.162Z,997.73
2023-03-18T08:36:30.812Z,997.73
2023-03-18T08:37:30.792Z,997.72
2023-03-18T08:38:30.792Z,997.68
2023-03-18T08:39:30.790Z,997.69
2023-03-18T08:40:30.762Z,997.73
2023-03-18T08:41:30.743Z,997.69
2023-03-18T08:42:30.744Z,997.73
2023-03-18T08:43:30.712Z,997.75
2023-03-18T08:44:30.723Z,997.76
2023-03-18T08:45:30.987Z,997.77
2023-03-18T08:46:30.699Z,997.78
2023-03-18T08:47:30.703Z,997.76
2023-03-18T08:48:30.669Z,997.79
2023-03-18T08:49:30.657Z,997.80
2023-03-18T08:50:30.666Z,997.83
2023-03-18T08:51:30.613Z,997.79
2023-03-18T08:52:30.606Z,997.81
2023-03-18T08:53:30.591Z,997.84
2023-03-18T08:54:30.596Z,997.82
2023-03-18T08:55:31.084Z,997.82
2023-03-18T08:56:30.556Z,997.82
2023-03-18T08:57:30.537Z,997.86
2023-03-18T08:58:30.534Z,997.83
2023-03-18T08:59:30.524Z,997.83
2023-03-18T09:00:30.572Z,997.83
2023-03-18T09:01:30.568Z,997.87
2023-03-18T09:02:30.469Z,997.84
2023-03-18T09:03:30.536Z,997.82
2023-03-18T09:04:30.470Z,997.84
2023-03-18T09:05:30.519Z,997.81
2023-03-18T09:06:30.430Z,997.82
2023-03-18T09:07:30.398Z,997.81
2023-03-18T09:08:30.419Z,997.81
2023-03-18T09:09:42.785Z,997.81
2023-03-18T09:10:31.385Z,997.79
2023-03-18T09:11:30.360Z,997.77
2023-03-18T09:12:30.347Z,997.76
2023-03-18T09:13:30.318Z,997.77
2023-03-18T09:14:30.326Z,997.76
2023-03-18T09:15:30.636Z,997.71
2023-03-18T09:16:30.324Z,997.72
2023-03-18T09:17:45.271Z,997.73
2023-03-18T09:18:31.272Z,997.70
2023-03-18T09:19:30.279Z,997.70
2023-03-18T09:20:30.348Z,997.70
2023-03-18T09:21:30.246Z,997.67
2023-03-18T09:22:30.902Z,997.70
2023-03-18T09:23:30.200Z,997.72
2023-03-18T09:24:30.257Z,997.71
2023-03-18T09:25:30.757Z,997.71
2023-03-18T09:26:30.162Z,997.71
2023-03-18T09:27:30.164Z,997.68
2023-03-18T09:28:30.129Z,997.70
2023-03-18T09:29:30.123Z,997.69
2023-03-18T09:30:30.236Z,997.66
2023-03-18T09:31:33.261Z,997.66
2023-03-18T09:32:30.110Z,997.68
2023-03-18T09:33:30.286Z,997.69
2023-03-18T09:34:30.134Z,997.72
2023-03-18T09:35:30.270Z,997.70
2023-03-18T09:36:30.114Z,997.68
2023-03-18T09:37:29.994Z,997.75
2023-03-18T09:38:30.012Z,997.71
2023-03-18T09:39:30.052Z,997.74
2023-03-18T09:40:29.971Z,997.73
2023-03-18T09:41:30.018Z,997.75
2023-03-18T09:42:30.020Z,997.72
2023-03-18T09:43:30.142Z,997.72
2023-03-18T09:44:30.056Z,997.72
2023-03-18T09:45:30.466Z,997.71
2023-03-18T09:46:29.970Z,997.68
2023-03-18T09:47:29.864Z,997.69
2023-03-18T09:48:29.939Z,997.68
2023-03-18T09:49:29.894Z,997.70
2023-03-18T09:50:29.856Z,997.68
2023-03-18T09:51:29.839Z,997.70
2023-03-18T09:52:29.839Z,997.68
2023-03-18T09:53:29.925Z,997.68
2023-03-18T09:54:29.848Z,997.70
2023-03-18T09:55:30.162Z,997.62
2023-03-18T09:56:29.828Z,997.63
2023-03-18T09:57:29.975Z,997.59
2023-03-18T09:58:29.983Z,997.58
2023-03-18T09:59:30.007Z,997.58
2023-03-18T10:00:29.755Z,997.54
2023-03-18T10:01:29.817Z,997.51
2023-03-18T10:02:29.684Z,997.50
2023-03-18T10:03:29.784Z,997.54
2023-03-18T10:04:29.776Z,997.51
2023-03-18T10:05:29.750Z,997.50
2023-03-18T10:06:29.757Z,997.49
2023-03-18T10:07:29.671Z,997.48
2023-03-18T10:08:29.685Z,997.44
2023-03-18T10:09:29.782Z,997.46
2023-03-18T10:10:29.621Z,997.46
2023-03-18T10:11:29.643Z,997.47
2023-03-18T10:12:29.605Z,997.42
2023-03-18T10:13:29.518Z,997.47
2023-03-18T10:14:29.565Z,997.44
2023-03-18T10:15:29.512Z,997.46
2023-03-18T10:16:29.521Z,997.46
2023-03-18T10:17:29.464Z,997.45
2023-03-18T10:18:29.525Z,997.46
2023-03-18T10:19:29.467Z,997.49
2023-03-18T10:20:29.428Z,997.47
2023-03-18T10:21:29.427Z,997.46
2023-03-18T10:22:29.396Z,997.47
2023-03-18T10:23:29.390Z,997.44
2023-03-18T10:24:29.437Z,997.50
2023-03-18T10:25:29.361Z,997.47
2023-03-18T10:26:29.357Z,997.47
2023-03-18T10:27:29.334Z,997.50
2023-03-18T10:28:29.348Z,997.48
2023-03-18T10:29:29.327Z,997.49
2023-03-18T10:30:29.297Z,997.53
2023-03-18T10:31:29.342Z,997.51
2023-03-18T10:32:42.600Z,997.52
2023-03-18T10:33:30.305Z,997.50
2023-03-18T10:34:29.259Z,997.49
2023-03-18T10:35:29.226Z,997.51
2023-03-18T10:36:29.228Z,997.47
2023-03-18T10:37:29.210Z,997.49
2023-03-18T10:38:29.212Z,997.48
2023-03-18T10:39:29.288Z,997.43
2023-03-18T10:40:29.172Z,997.46
2023-03-18T10:41:29.172Z,997.46
2023-03-18T10:42:29.214Z,997.44
2023-03-18T10:43:29.120Z,997.45
2023-03-18T10:44:29.147Z,997.49
2023-03-18T10:45:29.092Z,997.44
2023-03-18T10:46:29.242Z,997.42
2023-03-18T10:47:29.153Z,997.42
2023-03-18T10:48:29.062Z,997.46
2023-03-18T10:49:29.066Z,997.45
2023-03-18T10:50:29.044Z,997.42
2023-03-18T10:51:29.012Z,997.39
2023-03-18T10:52:29.014Z,997.41
2023-03-18T10:53:29.018Z,997.39
2023-03-18T10:54:28.995Z,997.43
2023-03-18T10:55:29.025Z,997.40
2023-03-18T10:56:28.972Z,997.44
2023-03-18T10:57:28.942Z,997.41
2023-03-18T10:58:28.974Z,997.43
2023-03-18T10:59:28.921Z,997.38
2023-03-18T11:00:28.950Z,997.41
2023-03-18T11:01:29.071Z,997.41
2023-03-18T11:02:28.910Z,997.40
2023-03-18T11:03:28.862Z,997.36
2023-03-18T11:04:28.843Z,997.40
2023-03-18T11:05:28.853Z,997.38
2023-03-18T11:06:31.091Z,997.37
2023-03-18T11:07:28.807Z,997.34
2023-03-18T11:08:28.834Z,997.27
2023-03-18T11:09:28.788Z,997.33
2023-03-18T11:10:28.796Z,997.30
2023-03-18T11:11:28.857Z,997.30
2023-03-18T11:12:28.787Z,997.33
2023-03-18T11:13:28.735Z,997.31
2023-03-18T11:14:28.718Z,997.27
2023-03-18T11:15:28.719Z,997.32
2023-03-18T11:16:28.766Z,997.34
2023-03-18T11:17:28.675Z,997.34
2023-03-18T11:18:28.698Z,997.32
2023-03-18T11:19:29.401Z,997.30
2023-03-18T11:20:28.678Z,997.31
2023-03-18T11:21:28.633Z,997.35
2023-03-18T11:22:28.616Z,997.36
2023-03-18T11:23:29.736Z,997.35
2023-03-18T11:24:29.606Z,997.31
2023-03-18T11:25:28.583Z,997.34
2023-03-18T11:26:28.572Z,997.34
2023-03-18T11:27:28.537Z,997.31
2023-03-18T11:28:28.535Z,997.28
2023-03-18T11:29:28.507Z,997.32
2023-03-18T11:30:34.371Z,997.35
2023-03-18T11:31:29.516Z,997.33
2023-03-18T11:32:28.585Z,997.34
2023-03-18T11:33:28.472Z,997.35
2023-03-18T11:34:28.457Z,997.33
2023-03-18T11:35:28.461Z,997.31
2023-03-18T11:36:28.436Z,997.32
2023-03-18T11:37:28.406Z,997.33
2023-03-18T11:38:28.396Z,997.31
2023-03-18T11:39:28.376Z,997.35
2023-03-18T11:40:28.418Z,997.33
2023-03-18T11:41:28.375Z,997.32
2023-03-18T11:42:28.345Z,997.34
2023-03-18T11:43:28.334Z,997.33
2023-03-18T11:44:28.317Z,997.35
2023-03-18T11:45:28.322Z,997.33
2023-03-18T11:46:28.341Z,997.35
2023-03-18T11:47:28.279Z,997.34
2023-03-18T11:48:28.261Z,997.34
2023-03-18T11:49:28.296Z,997.34
2023-03-18T11:50:28.256Z,997.27
2023-03-18T11:51:28.242Z,997.28
2023-03-18T11:52:28.202Z,997.27
2023-03-18T11:53:28.192Z,997.26
2023-03-18T11:54:28.163Z,997.27
2023-03-18T11:55:28.192Z,997.23
2023-03-18T11:56:28.156Z,997.29
2023-03-18T11:57:28.133Z,997.30
2023-03-18T11:58:28.119Z,997.32
2023-03-18T11:59:28.108Z,997.23
2023-03-18T12:00:28.148Z,997.22
2023-03-18T12:01:28.097Z,997.21
2023-03-18T12:02:28.069Z,997.14
2023-03-18T12:03:28.074Z,997.15
2023-03-18T12:04:28.066Z,997.21
2023-03-18T12:05:28.043Z,997.18
2023-03-18T12:06:28.046Z,997.18
2023-03-18T12:07:28.026Z,997.18
2023-03-18T12:08:28.169Z,997.18
2023-03-18T12:09:27.988Z,997.15
2023-03-18T12:10:27.985Z,997.16
2023-03-18T12:11:27.979Z,997.13
2023-03-18T12:12:27.939Z,997.15
2023-03-18T12:13:27.930Z,997.13
2023-03-18T12:14:27.914Z,997.15
2023-03-18T12:15:27.914Z,997.19
2023-03-18T12:16:27.975Z,997.17
2023-03-18T12:17:27.877Z,997.13
2023-03-18T12:18:27.865Z,997.12
2023-03-18T12:19:27.855Z,997.15
2023-03-18T12:20:27.964Z,997.12
2023-03-18T12:21:27.847Z,997.10
2023-03-18T12:22:27.819Z,997.15
2023-03-18T12:23:27.789Z,997.19
2023-03-18T12:24:27.776Z,997.22
2023-03-18T12:25:27.788Z,997.19
2023-03-18T12:26:27.776Z,997.14
2023-03-18T12:27:27.755Z,997.14
2023-03-18T12:28:27.732Z,997.13